Time;durP1;ratioP1;P1;durP2;ratioP2;P2;SDS_P1;SDS_P2;PMS_P1;PMS_P2;Temp;Humidity;BMP_temperature;BMP_pressure;BME280_temperature;BME280_humidity;BME280_pressure;Samples;Min_cycle;Max_cycle;Signal;HPM_P1;HPM_P2
2023/09/23 00:00:04;;;;;;;0.17;0.17;;;16.50;99.90;;;;;;7392726;19;20146;-86
2023/09/23 00:02:33;;;;;;;0.10;0.10;;;16.40;99.90;;;;;;7395754;19;20134;-86
2023/09/23 00:04:59;;;;;;;0.10;0.10;;;16.40;99.90;;;;;;7390324;19;20233;-86
2023/09/23 00:07:25;;;;;;;0.17;0.17;;;16.60;99.90;;;;;;7393495;19;20135;-85
2023/09/23 00:09:51;;;;;;;0.10;0.10;;;16.50;99.90;;;;;;7394409;19;20135;-82
2023/09/23 00:12:17;;;;;;;0.20;0.20;;;16.40;99.90;;;;;;7393648;19;20130;-85
2023/09/23 00:14:44;;;;;;;0.20;0.20;;;16.50;99.90;;;;;;7393991;19;20659;-85
2023/09/23 00:17:10;;;;;;;0.10;0.10;;;16.50;99.90;;;;;;7391830;19;20143;-86
2023/09/23 00:19:36;;;;;;;0.10;0.10;;;16.50;99.90;;;;;;7392294;19;20493;-86
2023/09/23 00:22:02;;;;;;;0.20;0.20;;;16.60;99.90;;;;;;7393659;19;20126;-86
2023/09/23 00:24:28;;;;;;;0.10;0.10;;;16.60;99.90;;;;;;7390012;19;20135;-86
2023/09/23 00:26:59;;;;;;;0.10;0.10;;;16.50;99.90;;;;;;7388852;19;20156;-85
2023/09/23 00:29:28;;;;;;;0.10;0.10;;;16.50;99.90;;;;;;7387400;19;20322;-85
2023/09/23 00:31:54;;;;;;;0.20;0.20;;;16.40;99.90;;;;;;7392820;19;20154;-85
2023/09/23 00:34:23;;;;;;;0.10;0.10;;;16.40;99.90;;;;;;7391779;19;20145;-83
2023/09/23 00:36:50;;;;;;;0.10;0.10;;;16.30;99.90;;;;;;7392765;19;20151;-85
2023/09/23 00:39:17;;;;;;;0.10;0.10;;;16.30;99.90;;;;;;7394250;19;20161;-84
2023/09/23 00:41:43;;;;;;;0.10;0.10;;;16.40;99.90;;;;;;7399378;19;20156;-85
2023/09/23 00:44:10;;;;;;;0.10;0.10;;;16.30;99.90;;;;;;7399887;19;20138;-83
2023/09/23 00:46:37;;;;;;;0.10;0.10;;;16.30;99.90;;;;;;7397179;19;20162;-85
2023/09/23 00:49:09;;;;;;;0.10;0.10;;;16.10;99.90;;;;;;7398575;19;20159;-84
2023/09/23 00:51:37;;;;;;;0.38;0.38;;;16.20;99.90;;;;;;7397782;19;20266;-86
2023/09/23 00:54:13;;;;;;;0.10;0.10;;;16.20;99.90;;;;;;7399177;19;20142;-85
2023/09/23 00:56:40;;;;;;;0.10;0.10;;;16.10;99.90;;;;;;7398099;19;20162;-84
2023/09/23 00:59:06;;;;;;;0.10;0.10;;;16.00;99.90;;;;;;7398389;19;20154;-85
2023/09/23 01:01:32;;;;;;;0.10;0.10;;;15.90;99.90;;;;;;7396319;19;20795;-85
2023/09/23 01:03:58;;;;;;;0.10;0.10;;;15.90;99.90;;;;;;7397976;19;20579;-84
2023/09/23 01:06:27;;;;;;;0.20;0.20;;;16.00;99.90;;;;;;7394210;19;20480;-84
2023/09/23 01:08:54;;;;;;;0.10;0.10;;;15.80;99.90;;;;;;7397953;19;20151;-84
2023/09/23 01:11:21;;;;;;;0.10;0.10;;;16.00;99.90;;;;;;7398457;19;20521;-86
2023/09/23 01:13:51;;;;;;;0.10;0.10;;;16.40;99.90;;;;;;7397964;19;20236;-86
2023/09/23 01:16:17;;;;;;;0.10;0.10;;;15.80;99.90;;;;;;7397692;19;20475;-84
2023/09/23 01:18:48;;;;;;;0.10;0.10;;;15.80;99.90;;;;;;7396962;19;20139;-85
2023/09/23 01:21:15;;;;;;;0.20;0.20;;;15.80;99.90;;;;;;7397102;19;20134;-83
2023/09/23 01:23:43;;;;;;;0.10;0.10;;;16.00;99.90;;;;;;7397296;19;20131;-84
2023/09/23 01:26:11;;;;;;;0.10;0.10;;;15.80;99.90;;;;;;7395074;19;20130;-84
2023/09/23 01:28:37;;;;;;;0.20;0.20;;;15.80;99.90;;;;;;7398249;19;20165;-85
2023/09/23 01:31:04;;;;;;;0.10;0.10;;;15.80;99.90;;;;;;7398724;19;20131;-85
2023/09/23 01:33:30;;;;;;;0.10;0.10;;;15.60;99.90;;;;;;7397703;19;20151;-86
2023/09/23 01:36:03;;;;;;;0.10;0.10;;;15.50;99.90;;;;;;7396227;19;20538;-85
2023/09/23 01:38:30;;;;;;;0.10;0.10;;;15.60;99.90;;;;;;7396678;19;20135;-85
2023/09/23 01:40:56;;;;;;;0.20;0.20;;;15.50;99.90;;;;;;7397319;19;20602;-85
2023/09/23 01:43:22;;;;;;;0.10;0.10;;;15.40;99.90;;;;;;7396410;19;20146;-85
2023/09/23 01:45:48;;;;;;;0.10;0.10;;;15.50;99.90;;;;;;7395285;19;20138;-86
2023/09/23 01:48:15;;;;;;;0.10;0.10;;;15.60;99.90;;;;;;7398500;19;20145;-86
2023/09/23 01:50:41;;;;;;;0.10;0.10;;;15.50;99.90;;;;;;7396957;19;20135;-86
2023/09/23 01:53:09;;;;;;;0.10;0.10;;;15.50;99.90;;;;;;7396273;19;20162;-83
2023/09/23 01:55:35;;;;;;;0.10;0.10;;;15.50;99.90;;;;;;7397512;19;20222;-85
2023/09/23 01:58:01;;;;;;;0.10;0.10;;;15.30;99.90;;;;;;7395429;19;20139;-83
2023/09/23 02:00:28;;;;;;;0.10;0.10;;;15.40;99.90;;;;;;7395888;19;20135;-84
2023/09/23 02:02:55;;;;;;;0.10;0.10;;;15.40;99.90;;;;;;7396415;19;20141;-85
2023/09/23 02:05:24;;;;;;;0.20;0.20;;;15.40;99.90;;;;;;7394698;19;20182;-86
2023/09/23 02:07:50;;;;;;;0.13;0.13;;;15.40;99.90;;;;;;7395453;19;20579;-84
2023/09/23 02:10:17;;;;;;;0.10;0.10;;;15.30;99.90;;;;;;7396451;19;20126;-85
2023/09/23 02:12:44;;;;;;;0.15;0.15;;;15.30;99.90;;;;;;7394678;19;20130;-85
2023/09/23 02:15:15;;;;;;;0.13;0.13;;;15.20;99.90;;;;;;7396583;19;20504;-84
2023/09/23 02:17:45;;;;;;;0.10;0.10;;;15.20;99.90;;;;;;7397008;19;20158;-86
2023/09/23 02:20:24;;;;;;;0.10;0.10;;;15.00;99.90;;;;;;7396333;19;20162;-86
2023/09/23 02:22:54;;;;;;;0.10;0.10;;;15.10;99.90;;;;;;7396168;19;20626;-85
2023/09/23 02:25:24;;;;;;;0.10;0.10;;;15.10;99.90;;;;;;7396658;19;20442;-85
2023/09/23 02:27:51;;;;;;;0.20;0.20;;;15.20;99.90;;;;;;7395859;19;20611;-85
2023/09/23 02:30:17;;;;;;;0.22;0.22;;;15.30;99.90;;;;;;7395500;19;20198;-85
2023/09/23 02:32:45;;;;;;;0.20;0.20;;;15.40;99.90;;;;;;7395600;19;20138;-84
2023/09/23 02:35:13;;;;;;;0.20;0.20;;;15.20;99.90;;;;;;7395650;19;20126;-85
2023/09/23 02:37:44;;;;;;;0.13;0.13;;;15.20;99.90;;;;;;7396638;19;20190;-84
2023/09/23 02:40:17;;;;;;;0.10;0.10;;;15.20;99.90;;;;;;7396216;19;20143;-82
2023/09/23 02:42:48;;;;;;;0.10;0.10;;;15.20;99.90;;;;;;7394523;19;20149;-84
2023/09/23 02:45:16;;;;;;;0.10;0.10;;;15.20;99.90;;;;;;7393156;19;20221;-84
2023/09/23 02:47:43;;;;;;;0.10;0.10;;;15.20;99.90;;;;;;7396165;19;20131;-83
2023/09/23 02:50:13;;;;;;;0.13;0.13;;;15.30;99.90;;;;;;7392242;19;20162;-85
2023/09/23 02:52:44;;;;;;;0.43;0.28;;;15.20;99.90;;;;;;7394427;19;20493;-84
2023/09/23 02:55:12;;;;;;;0.20;0.20;;;15.20;99.90;;;;;;7394714;19;20143;-86
2023/09/23 02:57:48;;;;;;;0.20;0.20;;;15.20;99.90;;;;;;7395010;19;20131;-85
2023/09/23 03:00:17;;;;;;;0.13;0.13;;;15.20;99.90;;;;;;7396031;19;20471;-85
2023/09/23 03:02:54;;;;;;;0.20;0.20;;;15.10;99.90;;;;;;7392243;19;20139;-85
2023/09/23 03:05:29;;;;;;;0.17;0.17;;;15.10;99.90;;;;;;7391238;19;21709;-84
2023/09/23 03:07:57;;;;;;;0.15;0.15;;;15.10;99.90;;;;;;7393240;19;20167;-85
2023/09/23 03:10:39;;;;;;;0.10;0.10;;;15.10;99.90;;;;;;7394202;19;20156;-85
2023/09/23 03:13:07;;;;;;;0.17;0.17;;;15.20;99.90;;;;;;7396831;19;20138;-85
2023/09/23 03:21:25;;;;;;;0.10;0.10;;;15.10;99.90;;;;;;7395916;19;20126;-83
2023/09/23 03:23:53;;;;;;;0.20;0.20;;;15.10;99.90;;;;;;7395061;19;20540;-84
2023/09/23 03:26:19;;;;;;;0.10;0.10;;;15.10;99.90;;;;;;7391342;19;20146;-81
2023/09/23 03:28:46;;;;;;;0.10;0.10;;;15.10;99.90;;;;;;7392729;19;20127;-81
2023/09/23 03:31:14;;;;;;;0.20;0.20;;;15.10;99.90;;;;;;7393283;19;20151;-84
2023/09/23 03:33:42;;;;;;;0.20;0.20;;;15.10;99.90;;;;;;7394618;19;20137;-84
2023/09/23 03:36:14;;;;;;;0.10;0.10;;;15.00;99.90;;;;;;7393190;19;20165;-84
2023/09/23 03:38:40;;;;;;;0.10;0.10;;;14.90;99.90;;;;;;7394227;19;20611;-84
2023/09/23 03:41:06;;;;;;;0.28;0.28;;;14.90;99.90;;;;;;7394486;19;20149;-84
2023/09/23 03:43:32;;;;;;;0.10;0.10;;;15.00;99.90;;;;;;7393721;19;20158;-84
2023/09/23 03:45:57;;;;;;;0.20;0.20;;;14.90;99.90;;;;;;7392173;19;20138;-85
2023/09/23 03:48:23;;;;;;;0.10;0.10;;;15.00;99.90;;;;;;7393222;19;20146;-84
2023/09/23 03:50:52;;;;;;;0.10;0.10;;;15.00;99.90;;;;;;7391970;19;20575;-85
2023/09/23 03:53:22;;;;;;;0.20;0.20;;;14.90;99.90;;;;;;7392869;19;20146;-84
2023/09/23 03:55:55;;;;;;;0.20;0.20;;;15.00;99.90;;;;;;7392079;19;20168;-84
2023/09/23 03:58:22;;;;;;;0.15;0.15;;;15.00;99.90;;;;;;7393972;19;20945;-84
2023/09/23 04:00:49;;;;;;;0.10;0.10;;;14.90;99.90;;;;;;7392783;19;20159;-84
2023/09/23 04:03:17;;;;;;;0.20;0.20;;;14.90;99.90;;;;;;7394738;19;20582;-85
2023/09/23 04:05:43;;;;;;;0.10;0.10;;;14.80;99.90;;;;;;7391265;19;20503;-85
2023/09/23 04:08:09;;;;;;;0.20;0.20;;;14.90;99.90;;;;;;7392901;19;20139;-83
2023/09/23 04:10:39;;;;;;;0.10;0.10;;;14.80;99.90;;;;;;7391330;19;20138;-84
2023/09/23 04:13:05;;;;;;;0.20;0.20;;;15.00;99.90;;;;;;7393293;19;20591;-84
2023/09/23 04:15:33;;;;;;;0.10;0.10;;;15.00;99.90;;;;;;7399006;19;20134;-84
2023/09/23 04:17:59;;;;;;;0.10;0.10;;;14.90;99.90;;;;;;7397600;19;20599;-84
2023/09/23 04:20:25;;;;;;;0.10;0.10;;;14.90;99.90;;;;;;7399503;19;20153;-83
2023/09/23 04:22:51;;;;;;;0.15;0.15;;;14.90;99.90;;;;;;7397591;19;20343;-84
2023/09/23 04:25:21;;;;;;;0.15;0.15;;;14.80;99.90;;;;;;7396954;19;20241;-84
2023/09/23 04:27:49;;;;;;;0.10;0.10;;;14.90;99.90;;;;;;7398314;19;20146;-84
2023/09/23 04:30:15;;;;;;;0.20;0.20;;;14.90;99.90;;;;;;7399359;19;20226;-83
2023/09/23 04:32:42;;;;;;;0.20;0.20;;;14.90;99.90;;;;;;7396951;19;20134;-84
2023/09/23 04:35:14;;;;;;;0.10;0.10;;;14.80;99.90;;;;;;7396220;19;20157;-84
2023/09/23 04:37:40;;;;;;;0.20;0.20;;;14.80;99.90;;;;;;7398269;19;20198;-83
2023/09/23 04:40:15;;;;;;;0.20;0.20;;;14.80;99.90;;;;;;7398191;19;20159;-83
2023/09/23 04:42:42;;;;;;;0.10;0.10;;;14.80;99.90;;;;;;7398245;19;20150;-83
2023/09/23 04:45:10;;;;;;;0.20;0.20;;;14.80;99.90;;;;;;7397267;19;20145;-84
2023/09/23 04:47:36;;;;;;;0.20;0.20;;;14.80;99.90;;;;;;7398219;19;20502;-84
2023/09/23 04:50:07;;;;;;;0.20;0.20;;;14.80;99.90;;;;;;7396873;19;20146;-84
2023/09/23 04:52:33;;;;;;;0.10;0.10;;;14.80;99.90;;;;;;7397420;19;20154;-85
2023/09/23 04:54:59;;;;;;;0.10;0.10;;;14.90;99.90;;;;;;7397650;19;20167;-84
2023/09/23 04:57:25;;;;;;;0.10;0.10;;;14.80;99.90;;;;;;7397096;19;20466;-83
2023/09/23 04:59:56;;;;;;;0.10;0.10;;;14.80;99.90;;;;;;7399133;19;20144;-82
2023/09/23 05:02:22;;;;;;;0.10;0.10;;;14.90;99.90;;;;;;7396218;19;20154;-83
2023/09/23 05:04:53;;;;;;;0.20;0.20;;;14.80;99.90;;;;;;7396005;19;20540;-82
2023/09/23 05:07:25;;;;;;;0.10;0.10;;;14.80;99.90;;;;;;7398372;19;20172;-82
2023/09/23 05:09:51;;;;;;;0.10;0.10;;;14.70;99.90;;;;;;7400079;19;20139;-83
2023/09/23 05:12:18;;;;;;;0.20;0.20;;;14.70;99.90;;;;;;7396731;19;20151;-82
2023/09/23 05:14:44;;;;;;;0.10;0.10;;;14.80;99.90;;;;;;7399134;19;20946;-84
2023/09/23 05:17:15;;;;;;;0.10;0.10;;;14.80;99.90;;;;;;7396582;19;20157;-83
2023/09/23 05:19:46;;;;;;;0.10;0.10;;;14.70;99.90;;;;;;7395778;19;20607;-82
2023/09/23 05:22:12;;;;;;;0.10;0.10;;;14.60;99.90;;;;;;7398429;19;20138;-80
2023/09/23 05:24:39;;;;;;;0.20;0.20;;;14.70;99.90;;;;;;7396004;19;20146;-81
2023/09/23 05:27:05;;;;;;;0.10;0.10;;;14.70;99.90;;;;;;7394382;19;20160;-80
2023/09/23 05:29:33;;;;;;;0.20;0.20;;;14.70;99.90;;;;;;7395242;19;20135;-83
2023/09/23 05:32:00;;;;;;;0.13;0.13;;;14.60;99.90;;;;;;7396784;19;20618;-82
2023/09/23 05:34:27;;;;;;;0.20;0.20;;;14.60;99.90;;;;;;7398792;19;20177;-83
2023/09/23 05:36:52;;;;;;;0.10;0.10;;;14.60;99.90;;;;;;7397457;19;20135;-82
2023/09/23 05:39:19;;;;;;;0.10;0.10;;;14.70;99.90;;;;;;7398448;19;20138;-83
2023/09/23 05:41:51;;;;;;;0.20;0.20;;;14.70;99.90;;;;;;7396097;19;20142;-83
2023/09/23 05:44:18;;;;;;;0.15;0.15;;;14.80;99.90;;;;;;7396005;19;20167;-82
2023/09/23 05:46:45;;;;;;;0.10;0.10;;;14.80;99.90;;;;;;7393747;19;20157;-82
2023/09/23 05:49:14;;;;;;;0.10;0.10;;;15.00;99.90;;;;;;7396579;19;20151;-81
2023/09/23 05:51:39;;;;;;;0.10;0.10;;;14.80;99.90;;;;;;7397293;19;20838;-83
2023/09/23 05:54:08;;;;;;;0.10;0.10;;;14.90;99.90;;;;;;7394180;19;20138;-82
2023/09/23 05:56:34;;;;;;;0.20;0.20;;;15.20;99.90;;;;;;7397869;19;20149;-83
2023/09/23 05:58:59;;;;;;;0.10;0.10;;;15.00;99.90;;;;;;7395067;19;20206;-82
2023/09/23 06:01:26;;;;;;;0.10;0.10;;;14.90;99.90;;;;;;7395368;19;20158;-82
2023/09/23 06:03:52;;;;;;;0.10;0.10;;;15.00;99.90;;;;;;7394842;19;20150;-83
2023/09/23 06:06:18;;;;;;;0.20;0.20;;;15.00;99.90;;;;;;7392461;19;20210;-82
2023/09/23 06:08:47;;;;;;;0.25;0.25;;;14.90;99.90;;;;;;7393779;19;20173;-82
2023/09/23 06:11:14;;;;;;;0.10;0.10;;;14.80;99.90;;;;;;7395834;19;21081;-84
2023/09/23 06:13:40;;;;;;;0.10;0.10;;;14.80;99.90;;;;;;7394905;19;20150;-83
2023/09/23 06:16:07;;;;;;;0.10;0.10;;;15.00;99.90;;;;;;7396450;19;20477;-82
2023/09/23 06:18:33;;;;;;;0.10;0.10;;;14.90;99.90;;;;;;7397299;19;20135;-83
2023/09/23 06:21:00;;;;;;;0.20;0.20;;;14.80;99.90;;;;;;7397405;19;20171;-83
2023/09/23 06:23:26;;;;;;;0.10;0.10;;;14.90;99.90;;;;;;7396198;19;20558;-83
2023/09/23 06:26:02;;;;;;;0.10;0.10;;;14.90;99.90;;;;;;7394440;19;20139;-82
2023/09/23 06:28:32;;;;;;;0.30;0.30;;;15.00;99.90;;;;;;7394967;19;20933;-82
2023/09/23 06:30:58;;;;;;;0.10;0.10;;;15.10;99.90;;;;;;7394280;19;20150;-82
2023/09/23 06:33:23;;;;;;;0.20;0.20;;;15.00;99.90;;;;;;7393840;19;20517;-82
2023/09/23 06:35:50;;;;;;;0.20;0.20;;;14.90;99.90;;;;;;7392726;19;20167;-82
2023/09/23 06:38:16;;;;;;;0.10;0.10;;;15.00;99.90;;;;;;7394692;19;20166;-82
2023/09/23 06:40:42;;;;;;;0.20;0.20;;;15.00;99.90;;;;;;7395385;19;20917;-83
2023/09/23 06:43:08;;;;;;;0.10;0.10;;;15.10;99.90;;;;;;7393098;19;20151;-81
2023/09/23 06:45:35;;;;;;;0.10;0.10;;;15.10;99.90;;;;;;7392823;19;20165;-82
2023/09/23 06:48:02;;;;;;;0.10;0.10;;;15.00;99.90;;;;;;7395226;19;20151;-82
2023/09/23 06:50:27;;;;;;;0.20;0.20;;;15.10;99.90;;;;;;7394666;19;20164;-82
2023/09/23 06:53:30;;;;;;;0.10;0.10;;;15.00;99.90;;;;;;7396833;19;20603;-81
2023/09/23 06:56:02;;;;;;;0.10;0.10;;;15.10;99.90;;;;;;7395071;19;20504;-80
2023/09/23 06:58:27;;;;;;;0.10;0.10;;;15.40;99.90;;;;;;7394663;19;20142;-81
2023/09/23 07:00:54;;;;;;;0.10;0.10;;;15.50;99.90;;;;;;7393934;19;20651;-82
2023/09/23 07:03:20;;;;;;;0.10;0.10;;;15.60;99.90;;;;;;7394517;19;20478;-83
2023/09/23 07:05:46;;;;;;;0.00;0.00;;;15.70;99.90;;;;;;7390889;19;20623;-83
2023/09/23 07:08:12;;;;;;;0.10;0.10;;;15.70;99.90;;;;;;7394409;19;20130;-84
2023/09/23 07:10:41;;;;;;;0.20;0.20;;;15.70;99.90;;;;;;7393320;19;20138;-83
2023/09/23 07:13:08;;;;;;;0.10;0.10;;;15.80;99.90;;;;;;7393986;19;20151;-82
2023/09/23 07:15:38;;;;;;;0.30;0.30;;;15.90;99.90;;;;;;7391652;19;20488;-80
2023/09/23 07:18:05;;;;;;;0.10;0.10;;;15.90;99.90;;;;;;7391374;19;20167;-81
2023/09/23 07:20:31;;;;;;;0.10;0.10;;;15.90;99.90;;;;;;7389815;19;20655;-82
2023/09/23 07:22:57;;;;;;;0.10;0.10;;;16.00;99.90;;;;;;7392391;19;20135;-78
2023/09/23 07:25:30;;;;;;;0.20;0.20;;;16.00;99.90;;;;;;7389915;19;20146;-81
2023/09/23 07:27:59;;;;;;;0.10;0.10;;;15.90;99.90;;;;;;7392408;19;20957;-82
2023/09/23 07:30:25;;;;;;;0.10;0.10;;;15.80;99.90;;;;;;7391841;19;20209;-82
2023/09/23 07:32:51;;;;;;;0.10;0.10;;;15.80;99.90;;;;;;7389585;19;20151;-80
2023/09/23 07:35:17;;;;;;;0.20;0.20;;;15.90;99.90;;;;;;7392050;19;20131;-81
2023/09/23 07:37:43;;;;;;;0.15;0.15;;;15.90;99.90;;;;;;7391811;19;20150;-82
2023/09/23 07:40:15;;;;;;;0.10;0.10;;;15.90;99.90;;;;;;7392463;19;20139;-85
2023/09/23 07:42:41;;;;;;;0.10;0.10;;;16.00;99.90;;;;;;7393497;19;20130;-83
2023/09/23 07:45:08;;;;;;;0.20;0.20;;;16.10;99.90;;;;;;7391846;19;20431;-82
2023/09/23 07:47:34;;;;;;;0.10;0.10;;;16.10;99.90;;;;;;7393455;19;20125;-84
2023/09/23 07:50:00;;;;;;;0.10;0.10;;;16.00;99.90;;;;;;7407376;19;20679;-83
2023/09/23 07:52:26;;;;;;;0.20;0.20;;;16.10;99.90;;;;;;7408955;19;20130;-83
2023/09/23 07:54:52;;;;;;;0.20;0.20;;;16.10;99.90;;;;;;7406174;19;20141;-81
2023/09/23 07:57:17;;;;;;;0.10;0.10;;;16.20;99.90;;;;;;7405587;19;20166;-83
2023/09/23 07:59:43;;;;;;;0.10;0.10;;;16.20;99.90;;;;;;7404000;19;20126;-80
2023/09/23 08:02:09;;;;;;;0.10;0.10;;;16.30;99.90;;;;;;7406775;19;20611;-82
2023/09/23 08:04:35;;;;;;;0.20;0.20;;;16.30;99.90;;;;;;7404075;19;20213;-81
2023/09/23 08:07:01;;;;;;;0.10;0.10;;;16.50;99.90;;;;;;7402703;19;20161;-81
2023/09/23 08:09:26;;;;;;;0.10;0.10;;;16.50;99.90;;;;;;7406199;19;20142;-82
2023/09/23 08:11:52;;;;;;;0.10;0.10;;;16.50;99.90;;;;;;7405764;19;20494;-81
2023/09/23 08:14:18;;;;;;;0.10;0.10;;;16.50;99.90;;;;;;7405393;19;20135;-81
2023/09/23 08:16:44;;;;;;;0.10;0.10;;;16.60;99.90;;;;;;7404828;19;20126;-82
2023/09/23 08:19:11;;;;;;;0.10;0.10;;;16.60;99.90;;;;;;7404592;19;20127;-81
2023/09/23 08:21:42;;;;;;;0.10;0.10;;;16.60;99.90;;;;;;7404855;19;20141;-84
2023/09/23 08:24:08;;;;;;;0.20;0.20;;;16.60;99.90;;;;;;7404639;19;20588;-82
2023/09/23 08:26:34;;;;;;;0.10;0.10;;;16.80;99.90;;;;;;7404102;19;20544;-85
2023/09/23 08:28:59;;;;;;;0.10;0.10;;;16.80;99.90;;;;;;7408450;19;20150;-81
2023/09/23 08:31:25;;;;;;;0.10;0.10;;;17.00;99.90;;;;;;7405697;19;20138;-83
2023/09/23 08:33:51;;;;;;;0.10;0.10;;;17.10;99.90;;;;;;7402631;19;20154;-82
2023/09/23 08:36:18;;;;;;;0.10;0.10;;;17.10;99.90;;;;;;7404061;19;20474;-83
2023/09/23 08:38:45;;;;;;;0.22;0.20;;;17.30;99.90;;;;;;7405020;19;20146;-83
2023/09/23 08:41:15;;;;;;;0.10;0.10;;;17.60;99.90;;;;;;7404886;19;20134;-83
2023/09/23 08:43:43;;;;;;;0.10;0.10;;;17.60;99.90;;;;;;7403463;19;20165;-83
2023/09/23 08:46:11;;;;;;;0.10;0.10;;;17.70;99.90;;;;;;7402910;19;20159;-84
2023/09/23 08:48:38;;;;;;;0.08;0.08;;;17.80;99.90;;;;;;7402260;19;20570;-85
2023/09/23 08:51:06;;;;;;;0.10;0.10;;;17.90;99.90;;;;;;7402617;19;20138;-83
2023/09/23 08:53:34;;;;;;;0.08;0.08;;;18.00;99.90;;;;;;7404107;19;22237;-88
2023/09/23 08:56:04;;;;;;;0.30;0.30;;;18.00;99.90;;;;;;7404083;19;20156;-85
2023/09/23 08:58:30;;;;;;;1.27;0.88;;;18.10;99.90;;;;;;7403865;19;20135;-84
2023/09/23 09:00:56;;;;;;;0.10;0.10;;;18.10;99.90;;;;;;7395490;19;20477;-86
2023/09/23 09:03:22;;;;;;;0.20;0.20;;;18.20;99.90;;;;;;7398606;19;20158;-87
2023/09/23 09:05:48;;;;;;;0.10;0.10;;;18.20;99.90;;;;;;7394625;19;20146;-86
2023/09/23 09:08:14;;;;;;;0.10;0.10;;;18.30;99.90;;;;;;7395577;19;20588;-84
2023/09/23 09:10:41;;;;;;;0.10;0.10;;;18.20;99.90;;;;;;7395391;19;20234;-82
2023/09/23 09:13:07;;;;;;;0.10;0.10;;;18.10;99.90;;;;;;7395142;19;20147;-83
2023/09/23 09:15:42;;;;;;;0.20;0.20;;;18.10;99.90;;;;;;7395641;19;20190;-81
2023/09/23 09:18:07;;;;;;;0.10;0.10;;;18.10;99.90;;;;;;7394381;19;20130;-84
2023/09/23 09:20:33;;;;;;;0.30;0.30;;;18.30;99.90;;;;;;7395918;19;20535;-81
2023/09/23 09:22:59;;;;;;;0.10;0.10;;;18.40;99.90;;;;;;7394730;19;20150;-83
2023/09/23 09:25:25;;;;;;;0.10;0.10;;;18.40;99.90;;;;;;7393801;19;20143;-86
2023/09/23 09:27:52;;;;;;;1.17;0.28;;;18.40;99.90;;;;;;7397904;19;20604;-88
2023/09/23 09:30:19;;;;;;;0.10;0.10;;;18.40;99.90;;;;;;7400615;19;20235;-88
2023/09/23 09:32:46;;;;;;;0.10;0.10;;;18.30;99.90;;;;;;7398275;19;20163;-86
2023/09/23 09:35:14;;;;;;;0.10;0.10;;;18.30;99.90;;;;;;7397502;19;20146;-87
2023/09/23 09:37:46;;;;;;;0.10;0.10;;;18.40;99.90;;;;;;7397887;19;20135;-86
2023/09/23 09:40:21;;;;;;;0.10;0.10;;;18.50;99.90;;;;;;7395847;19;20195;-84
2023/09/23 09:42:54;;;;;;;0.10;0.10;;;18.70;99.90;;;;;;7396094;19;20558;-86
2023/09/23 09:45:21;;;;;;;0.20;0.20;;;18.80;99.90;;;;;;7396824;19;20157;-85
2023/09/23 09:47:53;;;;;;;0.10;0.10;;;18.80;99.90;;;;;;7399099;19;20130;-85
2023/09/23 09:50:22;;;;;;;0.10;0.10;;;18.80;99.90;;;;;;7396611;19;20134;-83
2023/09/23 09:52:47;;;;;;;0.20;0.20;;;18.90;99.90;;;;;;7395524;19;20143;-84
2023/09/23 09:55:17;;;;;;;0.10;0.10;;;19.00;99.90;;;;;;7392362;19;20134;-84
2023/09/23 09:57:43;;;;;;;0.10;0.10;;;19.10;99.90;;;;;;7395693;19;20134;-84
2023/09/23 10:00:24;;;;;;;0.20;0.20;;;19.10;99.90;;;;;;7393624;19;20150;-85
2023/09/23 10:02:56;;;;;;;0.10;0.10;;;19.10;99.90;;;;;;7394960;19;20134;-86
2023/09/23 10:05:22;;;;;;;0.10;0.10;;;19.10;99.90;;;;;;7394018;19;20163;-85
2023/09/23 10:07:55;;;;;;;0.15;0.15;;;19.20;99.90;;;;;;7395669;19;20575;-81
2023/09/23 10:10:34;;;;;;;0.10;0.10;;;19.30;99.90;;;;;;7393479;19;20626;-84
2023/09/23 10:13:18;;;;;;;0.10;0.10;;;19.40;99.90;;;;;;7392095;19;20206;-81
2023/09/23 10:15:44;;;;;;;0.10;0.10;;;19.30;99.90;;;;;;7393399;19;20159;-85
2023/09/23 10:18:16;;;;;;;0.20;0.20;;;19.10;99.90;;;;;;7391711;19;20148;-84
2023/09/23 10:20:50;;;;;;;0.10;0.10;;;19.20;99.90;;;;;;7391560;19;20593;-82
2023/09/23 10:23:20;;;;;;;0.10;0.10;;;19.30;99.90;;;;;;7394309;19;20139;-84
2023/09/23 10:25:50;;;;;;;0.10;0.10;;;19.20;99.90;;;;;;7390860;19;20135;-84
2023/09/23 10:28:23;;;;;;;0.10;0.10;;;19.20;99.90;;;;;;7392147;19;20139;-81
2023/09/23 10:30:56;;;;;;;0.40;0.40;;;19.20;99.90;;;;;;7391355;19;20554;-83
2023/09/23 10:33:23;;;;;;;0.10;0.10;;;19.10;99.90;;;;;;7389900;19;20157;-83
2023/09/23 10:35:48;;;;;;;0.10;0.10;;;19.20;99.90;;;;;;7390633;19;20674;-83
2023/09/23 10:38:26;;;;;;;0.10;0.10;;;19.00;99.90;;;;;;7393299;19;20146;-86
2023/09/23 10:40:53;;;;;;;0.28;0.28;;;19.10;99.90;;;;;;7390657;19;20142;-84
2023/09/23 10:43:22;;;;;;;0.30;0.30;;;19.10;99.90;;;;;;7392880;19;20491;-84
2023/09/23 10:45:53;;;;;;;0.10;0.10;;;19.10;99.90;;;;;;7391021;19;20146;-85
2023/09/23 10:48:19;;;;;;;0.10;0.10;;;19.00;99.90;;;;;;7391993;19;20162;-84
2023/09/23 10:50:46;;;;;;;0.10;0.10;;;19.10;99.90;;;;;;7393168;19;20151;-84
2023/09/23 10:53:14;;;;;;;0.20;0.20;;;19.20;99.90;;;;;;7394245;19;20134;-86
2023/09/23 10:55:40;;;;;;;0.40;0.40;;;19.40;99.90;;;;;;7393421;19;20134;-88
2023/09/23 10:58:09;;;;;;;0.00;0.00;;;19.50;99.90;;;;;;7395801;19;20138;-88
2023/09/23 11:00:36;;;;;;;0.25;0.25;;;19.50;99.90;;;;;;7402731;19;20130;-90
2023/09/23 11:03:07;;;;;;;0.10;0.10;;;19.60;99.90;;;;;;7394203;19;20130;-87
2023/09/23 11:05:37;;;;;;;0.10;0.10;;;19.70;99.90;;;;;;7390751;19;20587;-86
2023/09/23 11:08:07;;;;;;;0.10;0.10;;;19.70;99.90;;;;;;7395704;19;20593;-85
2023/09/23 11:10:38;;;;;;;0.10;0.10;;;19.60;99.90;;;;;;7395052;19;20130;-85
2023/09/23 11:13:05;;;;;;;0.10;0.10;;;19.50;99.90;;;;;;7394921;19;20134;-85
2023/09/23 11:15:31;;;;;;;0.10;0.10;;;19.40;99.90;;;;;;7389963;19;20130;-87
2023/09/23 11:17:57;;;;;;;0.10;0.10;;;19.10;99.90;;;;;;7395395;19;20135;-84
2023/09/23 11:20:31;;;;;;;0.10;0.10;;;18.90;99.90;;;;;;7390826;19;20150;-84
2023/09/23 11:23:05;;;;;;;0.10;0.10;;;18.90;99.90;;;;;;7393265;19;20859;-85
2023/09/23 11:25:51;;;;;;;0.30;0.20;;;18.80;99.90;;;;;;7388008;19;20122;-82
2023/09/23 11:28:21;;;;;;;0.10;0.10;;;18.70;99.90;;;;;;7392380;19;20154;-84
2023/09/23 11:30:49;;;;;;;0.13;0.13;;;18.90;99.90;;;;;;7392845;19;20153;-85
2023/09/23 11:33:15;;;;;;;0.10;0.10;;;19.00;99.90;;;;;;7393244;19;20142;-84
2023/09/23 11:35:42;;;;;;;0.10;0.10;;;19.20;99.90;;;;;;7393702;19;20150;-84
2023/09/23 11:38:09;;;;;;;0.10;0.10;;;19.40;99.90;;;;;;7393746;19;20516;-86
2023/09/23 11:40:35;;;;;;;0.10;0.10;;;19.50;99.90;;;;;;7393644;19;20210;-86
2023/09/23 11:43:01;;;;;;;0.10;0.10;;;19.30;99.90;;;;;;7391577;19;20548;-84
2023/09/23 11:45:27;;;;;;;0.13;0.13;;;19.00;99.90;;;;;;7392096;19;20146;-86
2023/09/23 11:47:59;;;;;;;0.10;0.10;;;19.00;99.90;;;;;;7392302;19;20151;-86
2023/09/23 11:50:26;;;;;;;0.10;0.10;;;18.90;99.90;;;;;;7393132;19;20214;-86
2023/09/23 11:52:54;;;;;;;0.10;0.10;;;18.80;99.90;;;;;;7393817;19;20130;-86
2023/09/23 11:55:22;;;;;;;0.10;0.10;;;18.80;99.90;;;;;;7392234;19;20143;-85
2023/09/23 11:57:49;;;;;;;0.30;0.30;;;18.80;99.90;;;;;;7392736;19;20138;-85
2023/09/23 12:00:16;;;;;;;0.30;0.20;;;18.70;99.90;;;;;;7395548;19;20145;-87
2023/09/23 12:02:42;;;;;;;0.10;0.10;;;18.70;99.90;;;;;;7394588;19;20187;-85
2023/09/23 12:05:11;;;;;;;0.43;0.20;;;18.90;99.90;;;;;;7388907;19;20151;-86
2023/09/23 12:07:37;;;;;;;0.10;0.10;;;19.00;99.90;;;;;;7393869;19;20273;-86
2023/09/23 12:10:04;;;;;;;0.10;0.10;;;19.00;99.90;;;;;;7392951;19;20139;-86
2023/09/23 12:12:31;;;;;;;0.10;0.10;;;18.90;99.90;;;;;;7392539;19;20150;-85
2023/09/23 12:14:57;;;;;;;0.03;0.03;;;18.90;99.90;;;;;;7393119;19;20135;-85
2023/09/23 12:17:23;;;;;;;0.45;0.20;;;18.70;99.90;;;;;;7390126;19;20135;-86
2023/09/23 12:19:49;;;;;;;0.10;0.10;;;18.70;99.90;;;;;;7389993;19;20139;-86
2023/09/23 12:22:17;;;;;;;0.10;0.10;;;18.80;99.90;;;;;;7392682;19;20508;-85
2023/09/23 12:24:44;;;;;;;0.10;0.10;;;18.90;99.90;;;;;;7390948;19;20226;-85
2023/09/23 12:27:10;;;;;;;0.10;0.10;;;19.10;99.90;;;;;;7388833;19;20517;-87
2023/09/23 12:29:36;;;;;;;0.20;0.20;;;19.10;99.90;;;;;;7392245;19;20599;-85
2023/09/23 12:32:02;;;;;;;0.43;0.43;;;19.10;99.90;;;;;;7395109;19;20134;-85
2023/09/23 12:34:30;;;;;;;0.10;0.10;;;19.10;99.90;;;;;;7395042;19;20205;-84
2023/09/23 12:36:57;;;;;;;0.13;0.13;;;19.10;99.90;;;;;;7400715;19;20137;-85
2023/09/23 12:39:23;;;;;;;0.10;0.10;;;19.00;99.90;;;;;;7401243;19;20135;-85
2023/09/23 12:41:50;;;;;;;0.10;0.10;;;19.10;99.90;;;;;;7400400;19;20214;-85
2023/09/23 12:44:19;;;;;;;0.10;0.10;;;19.10;99.90;;;;;;7398988;19;20135;-85
2023/09/23 12:46:46;;;;;;;0.10;0.10;;;19.00;99.90;;;;;;7396331;19;20146;-84
2023/09/23 12:49:12;;;;;;;0.20;0.20;;;18.90;99.90;;;;;;7395284;19;20153;-85
2023/09/23 12:51:38;;;;;;;0.17;0.17;;;19.10;99.90;;;;;;7397139;19;20135;-85
2023/09/23 12:54:13;;;;;;;0.10;0.10;;;19.10;99.90;;;;;;7396490;19;20241;-85
2023/09/23 12:56:39;;;;;;;0.13;0.10;;;19.10;99.90;;;;;;7397396;19;20142;-85